createdAt,value
2022-11-24T00:02:01.948Z,4.56
2022-11-24T00:04:28.253Z,4.64
2022-11-24T00:06:54.507Z,4.65
2022-11-24T00:09:20.757Z,4.65
2022-11-24T00:11:46.989Z,4.57
2022-11-24T00:14:13.302Z,4.65
2022-11-24T00:16:39.568Z,4.75
2022-11-24T00:19:05.823Z,4.80
2022-11-24T00:21:32.048Z,4.78
2022-11-24T00:23:58.273Z,4.74
2022-11-24T00:26:24.520Z,4.62
2022-11-24T00:28:50.754Z,4.55
2022-11-24T00:31:17.758Z,4.59
2022-11-24T00:33:44.180Z,4.56
2022-11-24T00:36:10.408Z,4.37
2022-11-24T00:38:36.648Z,4.30
2022-11-24T00:41:02.901Z,4.33
2022-11-24T00:43:29.126Z,4.19
2022-11-24T00:45:55.475Z,4.33
2022-11-24T00:48:21.802Z,4.22
2022-11-24T00:50:48.046Z,4.33
2022-11-24T00:53:14.298Z,4.43
2022-11-24T00:55:40.542Z,4.43
2022-11-24T00:58:06.788Z,4.35
2022-11-24T01:00:33.042Z,4.24
2022-11-24T01:02:59.316Z,4.13
2022-11-24T01:05:25.592Z,4.13
2022-11-24T01:07:51.875Z,4.21
2022-11-24T01:10:18.141Z,4.02
2022-11-24T01:12:44.347Z,3.83
2022-11-24T01:15:10.581Z,4.04
2022-11-24T01:17:36.834Z,4.10
2022-11-24T01:20:03.059Z,4.16
2022-11-24T01:22:29.312Z,4.07
2022-11-24T01:24:55.561Z,4.18
2022-11-24T01:27:21.790Z,4.33
2022-11-24T01:29:48.039Z,3.89
2022-11-24T01:32:14.278Z,4.05
2022-11-24T01:34:40.494Z,4.24
2022-11-24T01:37:06.722Z,4.07
2022-11-24T01:39:32.967Z,4.23
2022-11-24T01:41:59.203Z,4.27
2022-11-24T01:44:25.425Z,4.28
2022-11-24T01:46:51.664Z,4.37
2022-11-24T01:49:17.885Z,4.36
2022-11-24T01:51:44.111Z,4.55
2022-11-24T01:54:10.336Z,4.68
2022-11-24T01:56:36.577Z,4.75
2022-11-24T01:59:02.808Z,4.77
2022-11-24T02:01:29.138Z,4.81
2022-11-24T02:03:55.467Z,4.87
2022-11-24T02:06:21.698Z,4.90
2022-11-24T02:08:47.920Z,4.92
2022-11-24T02:11:14.148Z,4.93
2022-11-24T02:13:40.400Z,4.49
2022-11-24T02:16:06.685Z,4.55
2022-11-24T02:18:32.949Z,4.65
2022-11-24T02:20:59.215Z,4.50
2022-11-24T02:23:25.458Z,4.35
2022-11-24T02:25:51.680Z,4.49
2022-11-24T02:28:17.917Z,4.68
2022-11-24T02:30:44.149Z,4.68
2022-11-24T02:33:10.401Z,4.80
2022-11-24T02:35:36.764Z,4.75
2022-11-24T02:38:03.011Z,4.68
2022-11-24T02:40:29.248Z,4.53
2022-11-24T02:42:55.490Z,4.64
2022-11-24T02:45:21.731Z,4.71
2022-11-24T02:47:47.959Z,4.72
2022-11-24T02:50:14.199Z,4.91
2022-11-24T02:52:40.433Z,5.01
2022-11-24T02:55:06.660Z,5.10
2022-11-24T02:57:32.894Z,5.14
2022-11-24T02:59:59.126Z,5.11
2022-11-24T03:02:25.424Z,5.20
2022-11-24T03:04:51.798Z,4.84
2022-11-24T03:07:18.051Z,5.02
2022-11-24T03:09:44.299Z,5.08
2022-11-24T03:12:10.565Z,4.98
2022-11-24T03:14:37.101Z,4.98
2022-11-24T03:17:03.396Z,4.98
2022-11-24T03:19:29.645Z,4.89
2022-11-24T03:21:55.893Z,4.99
2022-11-24T03:24:22.113Z,5.12
2022-11-24T03:26:48.347Z,5.05
2022-11-24T03:29:14.586Z,4.82
2022-11-24T03:31:40.899Z,4.89
2022-11-24T03:34:07.181Z,4.79
2022-11-24T03:36:33.441Z,4.88
2022-11-24T03:38:59.683Z,4.93
2022-11-24T03:41:25.953Z,4.85
2022-11-24T03:43:52.202Z,4.89
2022-11-24T03:46:18.511Z,5.02
2022-11-24T03:48:44.832Z,4.92
2022-11-24T03:51:11.075Z,4.99
2022-11-24T03:53:37.287Z,5.01
2022-11-24T03:56:03.524Z,4.89
2022-11-24T03:58:29.767Z,4.91
2022-11-24T04:00:55.991Z,4.70
2022-11-24T04:03:22.292Z,4.59
2022-11-24T04:05:48.509Z,4.19
2022-11-24T04:08:14.754Z,4.31
2022-11-24T04:10:41.024Z,4.38
2022-11-24T04:13:27.231Z,4.20
2022-11-24T04:16:06.949Z,4.33
2022-11-24T04:18:45.666Z,4.34
2022-11-24T04:21:11.912Z,4.39
2022-11-24T04:23:38.178Z,4.34
2022-11-24T04:26:04.408Z,4.00
2022-11-24T04:28:30.642Z,3.81
2022-11-24T04:30:56.924Z,3.95
2022-11-24T04:33:23.184Z,4.00
2022-11-24T04:35:49.430Z,3.29
2022-11-24T04:39:23.025Z,3.81
2022-11-24T04:41:01.872Z,3.98
2022-11-24T04:43:28.124Z,4.02
2022-11-24T04:45:54.373Z,4.05
2022-11-24T04:48:20.613Z,3.68
2022-11-24T04:50:46.863Z,3.80
2022-11-24T04:53:13.101Z,3.79
2022-11-24T04:55:39.405Z,3.89
2022-11-24T04:58:05.633Z,3.93
2022-11-24T05:00:31.856Z,3.83
2022-11-24T05:02:58.114Z,4.00
2022-11-24T05:05:24.377Z,4.05
2022-11-24T05:07:50.621Z,4.03
2022-11-24T05:10:16.892Z,4.00
2022-11-24T05:12:48.405Z,4.08
2022-11-24T05:15:17.373Z,3.99
2022-11-24T05:17:43.626Z,4.00
2022-11-24T05:20:09.863Z,3.78
2022-11-24T05:22:36.081Z,3.92
2022-11-24T05:25:02.299Z,4.02
2022-11-24T05:27:28.519Z,4.15
2022-11-24T05:29:54.767Z,4.21
2022-11-24T05:32:21.005Z,4.20
2022-11-24T05:34:47.228Z,4.35
2022-11-24T05:37:13.463Z,4.39
2022-11-24T05:39:39.682Z,4.54
2022-11-24T05:42:05.916Z,4.54
2022-11-24T05:44:32.532Z,4.52
2022-11-24T05:46:59.111Z,4.51
2022-11-24T05:49:25.487Z,4.55
2022-11-24T05:51:51.724Z,4.62
2022-11-24T05:54:17.979Z,4.72
2022-11-24T05:56:44.202Z,4.77
2022-11-24T05:59:10.428Z,4.71
2022-11-24T06:01:36.808Z,4.66
2022-11-24T06:04:03.208Z,4.57
2022-11-24T06:06:29.438Z,4.44
2022-11-24T06:08:55.674Z,4.54
2022-11-24T06:11:21.973Z,4.52
2022-11-24T06:13:48.304Z,4.38
2022-11-24T06:16:14.945Z,4.46
2022-11-24T06:18:41.257Z,4.52
2022-11-24T06:21:11.789Z,4.44
2022-11-24T06:23:38.377Z,4.30
2022-11-24T06:26:06.080Z,4.02
2022-11-24T06:28:32.339Z,4.14
2022-11-24T06:30:58.606Z,3.79
2022-11-24T06:33:24.846Z,3.44
2022-11-24T06:35:51.077Z,3.97
2022-11-24T06:38:22.919Z,4.14
2022-11-24T06:40:50.473Z,4.02
2022-11-24T06:43:16.696Z,4.06
2022-11-24T06:45:42.961Z,4.03
2022-11-24T06:48:09.217Z,3.94
2022-11-24T06:50:35.447Z,3.92
2022-11-24T06:53:01.695Z,3.83
2022-11-24T06:55:27.940Z,3.91
2022-11-24T06:57:54.165Z,3.96
2022-11-24T07:17:13.960Z,4.33
2022-11-24T07:19:42.395Z,4.30
2022-11-24T07:22:11.036Z,4.20
2022-11-24T07:24:37.542Z,4.27
2022-11-24T07:27:03.868Z,4.33
2022-11-24T07:29:30.097Z,4.27
2022-11-24T07:31:59.567Z,4.23
2022-11-24T07:34:28.644Z,4.22
2022-11-24T07:59:10.466Z,4.42
2022-11-24T08:01:36.956Z,4.64
2022-11-24T08:04:03.453Z,4.78
2022-11-24T08:14:44.644Z,5.11
2022-11-24T08:17:11.009Z,5.17
2022-11-24T08:19:37.307Z,5.28
2022-11-24T08:22:03.533Z,5.46
2022-11-24T08:24:29.772Z,5.63
2022-11-24T08:26:55.996Z,5.89
2022-11-24T08:29:22.246Z,5.62
2022-11-24T08:31:48.512Z,5.82
2022-11-24T08:34:14.767Z,5.93
2022-11-24T08:36:41.050Z,6.16
2022-11-24T08:39:07.303Z,6.38
2022-11-24T08:41:33.529Z,6.42
2022-11-24T08:43:59.769Z,6.29
2022-11-24T08:46:26.107Z,6.40
2022-11-24T08:48:52.414Z,6.26
2022-11-24T08:51:18.633Z,6.28
2022-11-24T08:53:44.867Z,6.38
2022-11-24T08:56:11.107Z,6.15
2022-11-24T08:58:37.420Z,6.10
2022-11-24T09:01:03.854Z,6.26
2022-11-24T09:03:30.129Z,6.41
2022-11-24T09:05:56.399Z,6.44
2022-11-24T09:08:22.672Z,6.39
2022-11-24T09:10:48.909Z,6.17
2022-11-24T09:13:15.133Z,5.40
2022-11-24T09:15:41.364Z,4.07
2022-11-24T09:18:07.613Z,3.58
2022-11-24T09:20:33.862Z,3.91
2022-11-24T09:23:00.116Z,4.18
2022-11-24T09:25:26.368Z,4.78
2022-11-24T09:27:52.629Z,5.26
2022-11-24T09:30:18.876Z,5.72
2022-11-24T09:32:45.140Z,6.15
2022-11-24T09:35:11.383Z,6.30
2022-11-24T09:37:37.629Z,6.59
2022-11-24T09:40:03.885Z,6.81
2022-11-24T09:42:30.313Z,7.16
2022-11-24T09:44:58.014Z,7.37
2022-11-24T09:47:24.247Z,7.24
2022-11-24T09:49:51.671Z,7.15
2022-11-24T10:14:59.910Z,8.16
2022-11-24T10:17:29.147Z,7.68
2022-11-24T10:34:00.520Z,8.06
2022-11-24T10:36:26.803Z,8.08
2022-11-24T10:38:53.022Z,8.05
2022-11-24T10:41:19.258Z,7.91
2022-11-24T10:43:47.755Z,8.26
2022-11-24T10:54:26.678Z,8.22
2022-11-24T11:02:30.586Z,8.58
2022-11-24T11:04:56.850Z,8.58
2022-11-24T11:07:23.178Z,8.68
2022-11-24T11:09:49.464Z,8.62
2022-11-24T11:12:45.137Z,8.63
2022-11-24T11:15:02.325Z,8.72
2022-11-24T11:17:28.652Z,8.84
2022-11-24T11:20:01.667Z,8.91
2022-11-24T11:22:28.724Z,8.92
2022-11-24T11:24:54.965Z,8.98
2022-11-24T11:27:21.434Z,9.01
2022-11-24T11:35:20.145Z,8.59
2022-11-24T11:37:46.390Z,8.59
2022-11-24T11:40:13.837Z,8.60
2022-11-24T11:45:26.575Z,8.32
2022-11-24T11:47:52.863Z,8.28
2022-11-24T11:50:19.155Z,8.29
2022-11-24T11:52:45.433Z,8.33
2022-11-24T11:55:11.654Z,8.35
2022-11-24T11:57:37.890Z,8.30
2022-11-24T12:00:04.137Z,8.13
2022-11-24T12:02:30.472Z,7.99
2022-11-24T12:04:56.835Z,7.94
2022-11-24T12:07:23.184Z,7.91
2022-11-24T12:09:49.494Z,7.82
2022-11-24T12:12:15.986Z,7.73
2022-11-24T12:14:42.723Z,7.78
2022-11-24T12:17:09.038Z,7.24
2022-11-24T12:19:35.520Z,7.38
2022-11-24T12:22:01.920Z,7.30
2022-11-24T12:24:28.227Z,7.35
2022-11-24T12:26:54.488Z,7.30
2022-11-24T12:29:20.727Z,7.29
2022-11-24T12:31:47.057Z,7.15
2022-11-24T12:34:13.350Z,7.11
2022-11-24T12:36:39.580Z,6.99
2022-11-24T12:39:07.015Z,7.08
2022-11-24T12:41:41.808Z,7.09
2022-11-24T12:44:08.612Z,7.09
2022-11-24T12:46:34.904Z,7.11
2022-11-24T12:49:01.171Z,7.18
2022-11-24T12:51:27.464Z,7.16
2022-11-24T12:53:53.718Z,6.84
2022-11-24T12:56:19.972Z,6.82
2022-11-24T12:58:46.287Z,6.84
2022-11-24T13:01:16.392Z,6.93
2022-11-24T13:03:43.212Z,6.82
2022-11-24T13:06:09.475Z,6.87
2022-11-24T13:08:35.719Z,6.97
2022-11-24T13:11:02.004Z,6.93
2022-11-24T13:13:28.222Z,6.97
2022-11-24T13:18:40.808Z,7.21
2022-11-24T13:21:07.284Z,7.29
2022-11-24T13:23:33.513Z,7.18
2022-11-24T13:25:59.738Z,7.29
2022-11-24T13:28:54.119Z,7.30
2022-11-24T13:31:12.285Z,7.29
2022-11-24T13:33:38.581Z,7.20
2022-11-24T13:36:04.811Z,7.18
2022-11-24T13:38:31.089Z,7.16
2022-11-24T13:41:13.356Z,7.10
2022-11-24T13:43:43.687Z,6.93
2022-11-24T13:46:10.053Z,6.98
2022-11-24T13:48:36.531Z,7.16
2022-11-24T13:51:03.164Z,7.08
2022-11-24T13:53:29.416Z,6.93
2022-11-24T13:58:52.096Z,6.97
2022-11-24T14:16:01.060Z,6.90
2022-11-24T14:21:15.986Z,6.82
2022-11-24T14:23:42.193Z,6.75
2022-11-24T14:28:43.670Z,6.76
2022-11-24T14:31:09.963Z,6.92
2022-11-24T14:33:36.452Z,6.86
2022-11-24T14:36:02.674Z,6.45
2022-11-24T14:38:28.913Z,6.21
2022-11-24T14:40:55.142Z,6.31
2022-11-24T14:46:10.237Z,6.58
2022-11-24T15:01:40.014Z,6.45
2022-11-24T15:04:09.864Z,6.42
2022-11-24T15:06:37.975Z,6.47
2022-11-24T15:09:04.227Z,6.43
2022-11-24T15:11:31.866Z,6.47
2022-11-24T15:13:58.105Z,6.25
2022-11-24T15:16:24.377Z,6.23
2022-11-24T15:19:00.949Z,6.16
2022-11-24T15:21:27.410Z,6.13
2022-11-24T15:23:53.872Z,6.10
2022-11-24T15:26:20.348Z,6.13
2022-11-24T15:28:46.791Z,6.17
2022-11-24T15:31:13.160Z,6.18
2022-11-24T15:33:39.438Z,6.20
2022-11-24T15:36:05.644Z,6.22
2022-11-24T15:38:31.972Z,6.15
2022-11-24T15:40:58.240Z,6.06
2022-11-24T15:43:24.480Z,6.16
2022-11-24T15:45:50.719Z,5.93
2022-11-24T15:48:18.342Z,5.61
2022-11-24T15:50:44.742Z,5.82
2022-11-24T15:53:11.090Z,5.90
2022-11-24T15:55:37.330Z,5.99
2022-11-24T15:58:03.580Z,5.92
2022-11-24T16:00:29.801Z,5.92
2022-11-24T16:02:56.085Z,5.86
2022-11-24T16:05:22.328Z,5.85
2022-11-24T16:07:48.660Z,5.69
2022-11-24T16:10:14.996Z,5.74
2022-11-24T16:12:41.253Z,5.77
2022-11-24T16:15:07.485Z,5.59
2022-11-24T16:17:33.748Z,5.58
2022-11-24T16:20:00.740Z,5.53
2022-11-24T16:22:27.319Z,5.54
2022-11-24T16:24:53.560Z,5.52
2022-11-24T16:27:19.812Z,5.43
2022-11-24T16:29:46.052Z,5.37
2022-11-24T16:32:12.286Z,5.30
2022-11-24T16:34:38.528Z,5.40
2022-11-24T16:37:04.764Z,5.42
2022-11-24T16:39:30.998Z,5.36
2022-11-24T16:41:57.235Z,5.21
2022-11-24T16:44:23.489Z,5.04
2022-11-24T16:46:49.726Z,4.89
2022-11-24T16:49:15.968Z,5.12
2022-11-24T16:51:42.232Z,5.27
2022-11-24T16:54:08.444Z,5.35
2022-11-24T16:56:34.673Z,5.00
2022-11-24T16:59:00.921Z,4.94
2022-11-24T17:01:27.274Z,4.85
2022-11-24T17:03:53.588Z,4.98
2022-11-24T17:06:19.841Z,4.93
2022-11-24T17:08:46.071Z,5.10
2022-11-24T17:11:12.386Z,5.07
2022-11-24T17:13:38.658Z,5.19
2022-11-24T17:16:04.946Z,5.32
2022-11-24T17:18:31.204Z,5.33
2022-11-24T17:20:57.425Z,5.41
2022-11-24T17:23:23.653Z,5.57
2022-11-24T17:25:49.896Z,5.72
2022-11-24T17:28:16.117Z,5.80
2022-11-24T17:30:42.355Z,5.86
2022-11-24T17:33:08.600Z,5.74
2022-11-24T17:35:34.831Z,5.78
2022-11-24T17:38:01.073Z,5.78
2022-11-24T17:40:28.765Z,5.73
2022-11-24T17:42:55.430Z,5.77
2022-11-24T17:45:21.644Z,5.77
2022-11-24T17:47:47.865Z,5.57
2022-11-24T17:50:14.124Z,5.68
2022-11-24T17:52:40.355Z,5.93
2022-11-24T17:55:06.586Z,5.98
2022-11-24T17:57:32.837Z,5.88
2022-11-24T17:59:59.195Z,5.99
2022-11-24T18:02:25.512Z,5.99
2022-11-24T18:04:51.796Z,6.03
2022-11-24T18:07:18.063Z,6.08
2022-11-24T18:09:44.336Z,5.98
2022-11-24T18:12:10.578Z,6.00
2022-11-24T18:14:37.035Z,6.02
2022-11-24T18:17:03.526Z,5.94
2022-11-24T18:19:29.762Z,6.04
2022-11-24T18:21:56.013Z,5.93
2022-11-24T18:24:24.249Z,5.95
2022-11-24T18:26:50.660Z,5.97
2022-11-24T18:29:16.877Z,6.04
2022-11-24T18:31:43.139Z,6.05
2022-11-24T18:34:09.424Z,5.89
2022-11-24T18:36:35.685Z,5.90
2022-11-24T18:39:01.934Z,5.82
2022-11-24T18:41:28.189Z,5.79
2022-11-24T18:43:54.434Z,5.70
2022-11-24T18:46:20.775Z,5.70
2022-11-24T18:48:47.058Z,5.72
2022-11-24T18:51:13.292Z,5.62
2022-11-24T18:53:39.701Z,5.70
2022-11-24T18:56:05.959Z,5.73
2022-11-24T18:58:32.180Z,5.82
2022-11-24T19:00:58.549Z,5.82
2022-11-24T19:03:24.823Z,5.84
2022-11-24T19:05:51.053Z,5.84
2022-11-24T19:08:17.322Z,5.91
2022-11-24T19:10:43.561Z,5.77
2022-11-24T19:13:09.804Z,5.70
2022-11-24T19:15:36.037Z,5.64
2022-11-24T19:18:02.278Z,5.72
2022-11-24T19:20:28.494Z,5.78
2022-11-24T19:22:54.763Z,5.85
2022-11-24T19:25:21.012Z,5.81
2022-11-24T19:27:47.264Z,5.76
2022-11-24T19:30:13.515Z,5.77
2022-11-24T19:32:39.737Z,5.45
2022-11-24T19:35:05.968Z,5.07
2022-11-24T19:37:32.210Z,5.21
2022-11-24T19:39:58.418Z,5.17
2022-11-24T19:42:24.636Z,5.17
2022-11-24T19:44:56.173Z,5.42
2022-11-24T19:47:22.754Z,5.51
2022-11-24T19:49:48.976Z,5.61
2022-11-24T19:52:15.205Z,5.67
2022-11-24T19:54:41.425Z,5.63
2022-11-24T19:57:07.651Z,5.70
2022-11-24T19:59:33.881Z,5.77
2022-11-24T20:02:00.276Z,5.74
2022-11-24T20:04:26.581Z,5.80
2022-11-24T20:06:52.830Z,5.70
2022-11-24T20:09:19.065Z,5.68
2022-11-24T20:11:45.316Z,5.73
2022-11-24T20:14:11.535Z,5.85
2022-11-24T20:16:37.796Z,5.93
2022-11-24T20:19:04.041Z,5.92
2022-11-24T20:21:30.289Z,5.86
2022-11-24T20:23:56.530Z,5.97
2022-11-24T20:26:22.758Z,5.67
2022-11-24T20:28:48.987Z,5.77
2022-11-24T20:31:15.264Z,5.72
2022-11-24T20:33:41.531Z,5.70
2022-11-24T20:36:07.763Z,5.83
2022-11-24T20:38:34.001Z,5.87
2022-11-24T20:41:03.471Z,5.90
2022-11-24T20:43:32.198Z,5.85
2022-11-24T20:45:58.509Z,5.96
2022-11-24T20:48:24.794Z,5.94
2022-11-24T20:50:51.556Z,6.07
2022-11-24T20:53:17.940Z,6.15
2022-11-24T20:55:44.174Z,6.04
2022-11-24T20:58:10.421Z,6.13
2022-11-24T21:00:36.695Z,6.18
2022-11-24T21:03:02.942Z,6.15
2022-11-24T21:05:29.170Z,6.26
2022-11-24T21:07:55.503Z,6.36
2022-11-24T21:10:21.788Z,6.29
2022-11-24T21:12:48.016Z,6.23
2022-11-24T21:15:14.262Z,6.28
2022-11-24T21:17:40.492Z,6.18
2022-11-24T21:20:06.746Z,6.19
2022-11-24T21:22:32.972Z,6.32
2022-11-24T21:24:59.198Z,6.19
2022-11-24T21:27:25.452Z,6.11
2022-11-24T21:29:51.698Z,6.11
2022-11-24T21:32:17.918Z,6.04
2022-11-24T21:34:44.136Z,5.96
2022-11-24T21:37:10.364Z,5.92
2022-11-24T21:39:36.698Z,5.86
2022-11-24T21:42:03.013Z,5.74
2022-11-24T21:44:29.243Z,5.76
2022-11-24T21:46:56.238Z,5.79
2022-11-24T21:49:22.642Z,5.50
2022-11-24T21:51:48.902Z,5.23
2022-11-24T21:54:15.148Z,5.29
2022-11-24T21:56:41.393Z,5.47
2022-11-24T21:59:07.640Z,5.66
2022-11-24T22:01:33.947Z,5.77
2022-11-24T22:04:00.241Z,5.83
2022-11-24T22:06:26.476Z,5.82
2022-11-24T22:08:52.689Z,5.94
2022-11-24T22:11:18.923Z,5.99
2022-11-24T22:13:45.145Z,6.04
2022-11-24T22:16:11.442Z,6.06
2022-11-24T22:18:37.724Z,6.14
2022-11-24T22:21:03.972Z,6.14
2022-11-24T22:23:30.206Z,5.97
2022-11-24T22:25:56.452Z,5.88
2022-11-24T22:28:22.702Z,5.85
2022-11-24T22:30:48.917Z,5.92
2022-11-24T22:33:15.143Z,6.09
2022-11-24T22:35:41.378Z,6.12
2022-11-24T22:38:07.626Z,6.02
2022-11-24T22:40:33.888Z,5.80
2022-11-24T22:43:00.123Z,5.59
2022-11-24T22:45:26.358Z,5.72
2022-11-24T22:47:52.627Z,5.72
2022-11-24T22:50:18.868Z,5.79
2022-11-24T22:52:45.104Z,5.90
2022-11-24T22:55:11.352Z,5.88
2022-11-24T22:57:37.587Z,6.00
2022-11-24T23:00:03.816Z,6.09
2022-11-24T23:02:30.076Z,5.96
2022-11-24T23:04:56.367Z,6.07
2022-11-24T23:07:22.634Z,6.25
2022-11-24T23:09:48.898Z,6.36
2022-11-24T23:12:15.147Z,6.42
2022-11-24T23:14:41.391Z,6.56
2022-11-24T23:17:07.628Z,6.57
2022-11-24T23:19:33.866Z,6.49
2022-11-24T23:22:00.091Z,6.53
2022-11-24T23:24:26.335Z,5.59
2022-11-24T23:26:52.580Z,5.57
2022-11-24T23:29:18.796Z,5.59
2022-11-24T23:31:45.057Z,5.15
2022-11-24T23:34:12.215Z,4.96
2022-11-24T23:36:38.434Z,5.37
2022-11-24T23:39:04.650Z,5.59
2022-11-24T23:41:30.895Z,5.89
2022-11-24T23:43:57.134Z,5.85
2022-11-24T23:46:23.411Z,5.98
2022-11-24T23:48:49.693Z,5.94
2022-11-24T23:51:15.926Z,5.95
2022-11-24T23:53:42.149Z,5.93
2022-11-24T23:56:08.382Z,5.99
2022-11-24T23:58:34.624Z,5.88
